OH5FQT Weather Reports


Display with metric or nautical units.
time (UTC)temp
F
wind
direction
speed
MPH
gust
MPH
rain 1hr
in
rain 24hr
in
rain mn
in
humidity
%
barometer
mb
20210614145507 65 53 0.0 1.0 0.00 0.00 0.00 50 1018.3
20210614145005 65 74 0.0 1.0 0.00 0.00 0.00 50 1018.3
20210614144507 65 88 0.0 3.0 0.00 0.00 0.00 50 1017.3
20210614144005 65 92 1.0 3.0 0.00 0.00 0.00 51 1017.3
20210614143507 65 120 0.0 1.0 0.00 0.00 0.00 51 1017.3
20210614141005 66 123 0.0 1.0 0.00 0.04 0.00 51 1017.3
20210614140007 66 107 0.0 6.0 0.00 0.04 0.00 50 1018.3
20210614135505 66 101 0.0 6.0 0.00 0.04 0.00 50 1018.3
20210614135007 66 100 2.0 4.0 0.00 0.04 0.00 50 1018.3
20210614134005 66 129 0.0 1.0 0.00 0.04 0.00 50 1018.3
20210614133505 66 117 0.0 1.0 0.00 0.04 0.00 50 1018.3
20210614132507 66 77 0.0 1.0 0.00 0.04 0.00 49 1018.3
20210614131506 66 112 0.0 1.0 0.00 0.04 0.00 50 1019.4
20210614131004 66 112 0.0 1.0 0.00 0.04 0.00 49 1019.4
20210614130506 66 0 0.0 0.0 0.00 0.04 0.00 50 1019.4
20210614130004 66 0 0.0 0.0 0.00 0.04 0.00 50 1019.4
20210614125504 66 0 0.0 0.0 0.00 0.04 0.00 50 1019.4
20210614125007 66 240 0.0 1.0 0.00 0.04 0.00 50 1019.4
20210614124505 66 240 0.0 1.0 0.00 0.04 0.00 49 1020.4
20210614123507 66 0 0.0 0.0 0.00 0.08 0.00 50 1020.4
20210614123007 66 0 0.0 0.0 0.00 0.08 0.00 50 1020.4
20210614122005 66 337 0.0 1.0 0.00 0.08 0.00 50 1020.4
20210614121505 66 0 0.0 0.0 0.00 0.08 0.00 49 1020.4
20210614121005 66 0 0.0 0.0 0.00 0.08 0.00 50 1020.4
20210614115505 66 0 0.0 0.0 0.00 0.08 0.00 50 1021.4
20210614115007 66 0 0.0 0.0 0.00 0.08 0.00 50 1021.4
20210614114007 66 22 0.0 1.0 0.00 0.08 0.00 50 1020.4
20210614112505 65 360 0.0 1.0 0.00 0.08 0.00 49 1020.4
20210614112005 65 360 0.0 1.0 0.00 0.12 0.00 49 1020.4
20210614110505 65 0 0.0 0.0 0.00 0.12 0.00 49 1020.4
20210614105505 65 0 0.0 0.0 0.00 0.12 0.00 49 1020.4
20210614105007 65 0 0.0 0.0 0.00 0.16 0.00 49 1020.4
20210614104506 65 315 0.0 1.0 0.00 0.16 0.00 49 1021.4
20210614102506 65 0 0.0 0.0 0.00 0.25 0.00 46 1019.4
20210614101507 65 247 0.0 1.0 0.00 0.25 0.00 46 1020.4
20210614095007 66 0 0.0 0.0 0.00 0.25 0.00 45 1020.4
20210614093505 68 0 0.0 0.0 0.00 0.25 0.00 47 1020.4
20210614093007 68 0 0.0 0.0 0.00 0.25 0.00 46 1020.4
20210614090507 67 360 0.0 1.0 0.00 0.29 0.00 48 1020.4
20210614085505 66 22 0.0 1.0 0.00 0.29 0.00 47 1020.4
20210614085007 67 0 0.0 0.0 0.00 0.29 0.00 48 1020.4
20210614084007 67 247 0.0 1.0 0.00 0.29 0.00 49 1020.4
20210614083507 67 247 0.0 1.0 0.00 0.29 0.00 49 1020.4
20210614083005 67 337 0.0 1.0 0.00 0.29 0.00 50 1020.4
20210614082507 66 337 0.0 1.0 0.00 0.29 0.00 50 1020.4
20210614082005 66 247 0.0 1.0 0.00 0.29 0.00 49 1020.4
20210614080507 66 223 0.0 1.0 0.00 0.29 0.00 52 1020.4
20210614080007 66 0 0.0 0.0 0.00 0.29 0.00 53 1020.4
20210614075505 65 0 0.0 0.0 0.00 0.29 0.00 53 1020.4
20210614075005 65 112 0.0 1.0 0.00 0.29 0.00 53 1020.4
20210614074507 65 112 0.0 1.0 0.00 0.29 0.00 53 1020.4
20210614073507 65 0 0.0 0.0 0.00 0.29 0.00 55 1020.4
20210614072506 64 0 0.0 0.0 0.00 0.29 0.00 55 1019.4
20210614072006 64 0 0.0 0.0 0.00 0.29 0.00 55 1019.4
20210614071507 64 0 0.0 0.0 0.00 0.29 0.00 55 1020.4
20210614071005 65 337 0.0 1.0 0.00 0.29 0.00 57 1020.4
20210614064507 64 247 0.0 1.0 0.00 0.29 0.00 61 1020.4
20210614064007 64 0 0.0 0.0 0.00 0.29 0.00 62 1020.4
20210614063507 63 0 0.0 0.0 0.00 0.29 0.00 62 1020.4
20210614062507 63 0 0.0 0.0 0.00 0.29 0.00 63 1020.4
20210614061507 62 0 0.0 0.0 0.00 0.29 0.00 65 1020.4
20210614061005 61 0 0.0 0.0 0.00 0.29 0.00 65 1020.4
20210614060505 61 292 0.0 1.0 0.00 0.29 0.00 65 1020.4
20210614055007 61 0 0.0 0.0 0.00 0.29 0.00 70 1020.4
20210614053507 60 292 0.0 1.0 0.00 0.29 0.00 73 1020.4
20210614052507 59 0 0.0 0.0 0.00 0.29 0.00 75 1019.4
20210614052005 59 0 0.0 0.0 0.00 0.29 0.00 75 1019.4
20210614051506 59 0 0.0 0.0 0.00 0.29 0.00 75 1019.4
20210614050507 59 22 0.0 1.0 0.00 0.29 0.00 76 1019.4
20210614050007 59 0 0.0 0.0 0.00 0.29 0.00 78 1019.4
20210614045507 59 0 0.0 0.0 0.00 0.29 0.00 79 1019.4
20210614045007 59 0 0.0 0.0 0.00 0.29 0.00 81 1019.4
20210614044507 58 337 0.0 1.0 0.00 0.29 0.00 81 1019.4
20210614044007 58 326 0.0 1.0 0.00 0.29 0.00 82 1019.4
20210614043505 58 317 0.0 2.0 0.00 0.29 0.00 82 1019.4
20210614043008 57 317 0.0 2.0 0.00 0.29 0.00 83 1020.4
20210614042506 57 0 0.0 0.0 0.00 0.29 0.00 84 1020.4
20210614042006 57 0 0.0 0.0 0.00 0.29 0.00 84 1020.4
20210614040006 55 0 0.0 0.0 0.00 0.29 0.00 87 1019.4
20210614035505 54 270 0.0 1.0 0.00 0.29 0.00 87 1019.4
20210614034505 54 0 0.0 0.0 0.00 0.29 0.00 88 1018.3
20210614033005 53 0 0.0 0.0 0.00 0.29 0.00 88 1018.3
20210614031507 53 0 0.0 0.0 0.00 0.29 0.00 89 1017.3
20210614031007 52 0 0.0 0.0 0.00 0.29 0.00 89 1017.3
20210614024507 52 0 0.0 0.0 0.00 0.29 0.00 90 1018.3
20210614022506 51 0 0.0 0.0 0.00 0.29 0.00 90 1018.3
20210614021506 50 0 0.0 0.0 0.00 0.29 0.00 89 1017.3
20210614021004 50 0 0.0 0.0 0.00 0.29 0.00 89 1017.3
20210614020506 50 0 0.0 0.0 0.00 0.29 0.00 89 1017.3
20210614014506 50 0 0.0 0.0 0.00 0.29 0.00 89 1018.3
20210614013504 50 0 0.0 0.0 0.00 0.29 0.00 89 1018.3
20210614012505 50 0 0.0 0.0 0.00 0.29 0.00 89 1018.3
20210614012008 50 0 0.0 0.0 0.00 0.29 0.00 89 1018.3
20210614011506 50 0 0.0 0.0 0.00 0.29 0.00 89 1018.3
20210614010005 50 0 0.0 0.0 0.00 0.29 0.00 89 1017.3
20210614005507 50 0 0.0 0.0 0.00 0.29 0.00 89 1017.3
20210614004506 50 0 0.0 0.0 0.00 0.29 0.00 89 1017.3
20210614004007 51 0 0.0 0.0 0.00 0.29 0.00 89 1017.3
20210614003505 51 0 0.0 0.0 0.00 0.29 0.00 89 1017.3
20210614002005 51 0 0.0 0.0 0.00 0.29 0.00 89 1017.3
20210614001505 51 0 0.0 0.0 0.00 0.29 0.00 90 1017.3
20210614001005 51 0 0.0 0.0 0.00 0.29 0.00 90 1017.3
20210614000007 51 0 0.0 0.0 0.00 0.29 0.00 90 1017.3
20210613235006 52 247 0.0 1.0 0.00 0.29 0.00 90 1017.3
20210613234504 52 0 0.0 0.0 0.00 0.29 0.00 89 1016.3
20210613234006 52 0 0.0 0.0 0.00 0.29 0.00 89 1016.3
20210613233004 52 292 0.0 1.0 0.00 0.29 0.00 89 1016.3
20210613232506 53 292 0.0 1.0 0.00 0.29 0.00 89 1016.3
20210613231004 53 0 0.0 0.0 0.00 0.29 0.00 89 1016.3
20210613230506 53 0 0.0 0.0 0.00 0.29 0.00 89 1016.3
20210613225506 53 292 0.0 1.0 0.00 0.29 0.00 90 1016.3
20210613225004 54 288 0.0 1.0 0.00 0.29 0.00 90 1016.3
20210613224507 54 285 0.0 1.0 0.00 0.29 0.00 90 1016.3
20210613223507 54 247 0.0 1.0 0.00 0.29 0.00 90 1016.3
20210613223007 54 247 0.0 1.0 0.00 0.29 0.00 90 1015.3
20210613222507 54 0 0.0 0.0 0.00 0.29 0.00 90 1015.3
20210613222005 54 0 0.0 0.0 0.00 0.29 0.00 90 1015.3
20210613220005 53 0 0.0 0.0 0.00 0.29 0.00 89 1016.3
20210613214507 53 0 0.0 0.0 0.00 0.29 0.00 88 1016.3
20210613214005 53 0 0.0 0.0 0.00 0.29 0.00 88 1016.3
20210613213507 53 0 0.0 0.0 0.00 0.29 0.00 88 1016.3
20210613213005 53 0 0.0 0.0 0.00 0.29 0.00 88 1016.3
20210613212507 53 0 0.0 0.0 0.00 0.29 0.00 88 1016.3
20210613211507 54 0 0.0 0.0 0.00 0.29 0.00 89 1015.3
20210613211005 54 0 0.0 0.0 0.00 0.29 0.00 89 1015.3
20210613205505 54 0 0.0 0.0 0.00 0.29 0.29 88 1015.3
20210613205005 54 0 0.0 0.0 0.00 0.29 0.29 88 1015.3
20210613203004 54 0 0.0 0.0 0.00 0.29 0.29 89 1015.3
20210613202506 54 0 0.0 0.0 0.00 0.29 0.29 89 1015.3
20210613202006 54 0 0.0 0.0 0.00 0.29 0.29 89 1015.3
20210613201006 54 0 0.0 0.0 0.00 0.29 0.29 89 1014.3
20210613194007 54 0 0.0 0.0 0.00 0.37 0.29 88 1014.3
20210613192005 55 0 0.0 0.0 0.00 0.37 0.29 88 1014.3
20210613191007 55 0 0.0 0.0 0.00 0.37 0.29 89 1013.3
20210613190507 55 0 0.0 0.0 0.00 0.37 0.29 88 1013.3
20210613190007 55 0 0.0 0.0 0.00 0.37 0.29 88 1013.3
20210613185005 55 0 0.0 0.0 0.00 0.37 0.29 88 1013.3
20210613184007 56 0 0.0 0.0 0.00 0.37 0.29 88 1014.3
20210613183005 56 0 0.0 0.0 0.00 0.37 0.29 88 1014.3
20210613181005 56 0 0.0 0.0 0.00 0.37 0.29 87 1014.3
20210613180007 56 232 0.0 1.0 0.00 0.37 0.29 87 1013.3
20210613175505 57 337 0.0 1.0 0.00 0.37 0.29 87 1013.3
20210613175007 57 304 0.0 1.0 0.00 0.37 0.29 87 1013.3
20210613174507 57 292 0.0 1.0 0.00 0.37 0.29 87 1013.3
20210613174005 57 292 0.0 1.0 0.00 0.37 0.29 87 1013.3
20210613173507 57 273 0.0 3.0 0.00 0.37 0.29 87 1013.3
20210613171505 58 270 2.0 6.0 0.00 0.37 0.29 88 1013.3
20210613171005 58 276 1.0 6.0 0.00 0.37 0.29 88 1013.3
20210613170007 58 273 0.0 7.0 0.00 0.37 0.29 88 1012.3
20210613165005 58 283 2.0 4.0 0.00 0.37 0.29 88 1012.3
20210613164507 58 288 1.0 3.0 0.00 0.37 0.29 89 1012.3
20210613164008 58 272 1.0 5.0 0.00 0.37 0.29 89 1012.3
20210613162507 58 272 1.0 4.0 0.00 0.37 0.29 89 1012.3
20210613162007 58 260 2.0 4.0 0.00 0.37 0.29 89 1012.3
20210613160007 58 252 1.0 7.0 0.00 0.37 0.29 89 1012.3
20210613155007 58 250 1.0 8.0 0.00 0.37 0.29 89 1012.3
20210613154507 58 264 3.0 8.0 0.00 0.37 0.29 89 1011.3
20210613153507 58 261 3.0 4.0 0.00 0.37 0.29 89 1011.3
20210613152007 57 261 0.0 9.0 0.04 0.37 0.29 88 1012.3